Terminal Aerodrome Forecast
Issued by NWS

Home | Current Version | Previous Version | Text Only | Print | Product List | Glossary On
Versions: 1 2 3 4 5 6 7 8 9 10 11 12 13 14
000
FTUS46 KSGX 211738
TAFSNA
TAF
KSNA 211738Z 2118/2218 19006KT P6SM FEW020
     FM211900 21011KT P6SM SKC
     FM220400 22004KT P6SM SCT015
     FM220800 19004KT P6SM BKN012
     FM221600 20005KT P6SM SCT015=

USA.gov is the U.S. government's official web portal to all federal, state and local government web resources and services.